Aviation Digital Data Service (ADDS)

Output produced by METARs form (0411 UTC 16 April 2014)
found at http://www.aviationweather.gov/adds/metars/
 
KLGA 160349Z 1604/1624 33011G20KT 4SM -RASN BR BKN009 
     FM160500 32018G27KT P6SM -RASN SCT009 BKN015 
     TEMPO 1605/1607 4SM -RASN BKN009 
     FM160700 33016G25KT P6SM FEW030 SCT150 
     FM161400 35013G20KT P6SM FEW040 
     FM162100 36012KT P6SM SKC